Time;durP1;ratioP1;P1;durP2;ratioP2;P2;SDS_P1;SDS_P2;PMS_P1;PMS_P2;Temp;Humidity;BMP_temperature;BMP_pressure;BME280_temperature;BME280_humidity;BME280_pressure;Samples;Min_cycle;Max_cycle;Signal;HPM_P1;HPM_P2
2024/01/05 00:01:09;;;;;;;48.20;17.75;;;;;;;7.31;100.00;100050.88;5078096;27;20047;-75
2024/01/05 00:03:34;;;;;;;57.35;20.00;;;;;;;7.32;100.00;100049.09;5102179;27;20089;-75
2024/01/05 00:06:00;;;;;;;48.22;20.02;;;;;;;7.44;100.00;100046.53;5075122;27;20028;-74
2024/01/05 00:08:26;;;;;;;48.50;19.65;;;;;;;7.41;100.00;100037.91;5096000;27;20052;-75
2024/01/05 00:10:51;;;;;;;51.22;20.58;;;;;;;7.37;100.00;100036.38;5073485;27;20039;-75
2024/01/05 00:13:17;;;;;;;62.60;20.92;;;;;;;7.33;100.00;100029.56;5100308;27;20035;-75
2024/01/05 00:15:42;;;;;;;55.67;20.60;;;;;;;7.36;100.00;100038.19;5092365;27;20040;-75
2024/01/05 00:18:08;;;;;;;62.17;21.70;;;;;;;7.35;100.00;100040.94;5090864;28;20394;-75
2024/01/05 00:20:33;;;;;;;55.47;23.08;;;;;;;7.39;100.00;100047.78;5098916;27;20468;-74
2024/01/05 00:22:59;;;;;;;44.55;19.13;;;;;;;7.31;100.00;100048.25;5097214;27;20040;-74
2024/01/05 00:25:24;;;;;;;53.15;20.38;;;;;;;7.19;100.00;100049.00;5090998;28;20067;-75
2024/01/05 00:27:53;;;;;;;53.47;20.80;;;;;;;7.19;100.00;100049.00;5103214;27;20070;-75
2024/01/05 00:30:19;;;;;;;46.90;19.75;;;;;;;7.44;100.00;100041.22;5082277;27;20035;-74
2024/01/05 00:32:45;;;;;;;54.00;20.10;;;;;;;7.66;100.00;100040.69;5098554;27;20028;-74
2024/01/05 00:35:10;;;;;;;46.25;19.23;;;;;;;7.70;100.00;100020.13;5089893;27;20039;-74
2024/01/05 00:37:36;;;;;;;45.05;19.80;;;;;;;7.78;100.00;100012.50;5102660;27;20561;-73
2024/01/05 00:40:03;;;;;;;49.95;17.85;;;;;;;7.87;100.00;100001.28;5103159;27;20213;-74
2024/01/05 00:42:28;;;;;;;53.20;18.38;;;;;;;7.86;100.00;99996.94;5098650;27;20035;-75
2024/01/05 00:44:54;;;;;;;64.85;18.05;;;;;;;7.91;100.00;99978.91;5100089;27;20038;-75
2024/01/05 00:47:19;;;;;;;44.03;17.83;;;;;;;8.03;100.00;99974.56;5089939;27;20748;-75
2024/01/05 00:49:45;;;;;;;45.53;18.38;;;;;;;8.07;100.00;99962.81;5104518;27;20092;-74
2024/01/05 00:52:12;;;;;;;41.97;18.05;;;;;;;8.10;100.00;99957.31;5093898;27;20039;-75
2024/01/05 00:54:38;;;;;;;43.85;19.17;;;;;;;8.15;100.00;99946.38;5096172;27;20619;-74
2024/01/05 00:57:04;;;;;;;42.80;19.83;;;;;;;8.20;100.00;99944.25;5095537;27;20023;-75
2024/01/05 00:59:29;;;;;;;51.25;20.90;;;;;;;8.00;100.00;99943.78;5090255;27;20423;-74
2024/01/05 01:01:55;;;;;;;49.63;22.08;;;;;;;8.04;100.00;99945.28;5081605;27;20404;-74
2024/01/05 01:04:20;;;;;;;41.75;19.58;;;;;;;7.97;100.00;99940.47;5103507;27;20045;-74
2024/01/05 01:06:46;;;;;;;43.28;17.23;;;;;;;7.88;100.00;99941.97;5096054;27;20047;-74
2024/01/05 01:09:12;;;;;;;47.13;19.90;;;;;;;7.64;100.00;99947.09;5089227;28;20040;-75
2024/01/05 01:11:37;;;;;;;49.63;19.85;;;;;;;7.58;100.00;99939.53;5088508;28;20036;-74
2024/01/05 01:14:03;;;;;;;42.63;19.67;;;;;;;7.60;100.00;99947.38;5090044;28;20729;-74
2024/01/05 01:16:29;;;;;;;43.80;18.30;;;;;;;7.67;100.00;99948.69;5064992;28;20476;-75
2024/01/05 01:18:55;;;;;;;40.20;17.60;;;;;;;7.49;100.00;99937.47;5098004;27;20170;-74
2024/01/05 01:21:20;;;;;;;49.42;20.10;;;;;;;7.59;100.00;99935.09;5094731;27;20145;-74
2024/01/05 01:23:46;;;;;;;51.03;21.35;;;;;;;7.49;100.00;99932.19;5076099;27;20036;-74
2024/01/05 01:26:12;;;;;;;39.83;17.63;;;;;;;7.38;100.00;99918.75;5079954;27;20089;-75
2024/01/05 01:28:37;;;;;;;44.55;19.02;;;;;;;7.42;100.00;99923.75;5093870;27;20531;-74
2024/01/05 01:31:03;;;;;;;51.10;17.70;;;;;;;7.40;100.00;99923.00;5094201;27;20039;-74
2024/01/05 01:33:28;;;;;;;48.33;19.40;;;;;;;7.48;100.00;99917.19;5097526;27;20213;-74
2024/01/05 01:35:54;;;;;;;43.75;15.85;;;;;;;7.43;100.00;99914.88;5077251;28;20584;-74
2024/01/05 01:38:20;;;;;;;42.22;15.98;;;;;;;7.40;100.00;99907.09;5099875;27;20052;-74
2024/01/05 01:40:47;;;;;;;41.60;15.23;;;;;;;7.37;100.00;99907.28;5096257;27;20553;-74
2024/01/05 01:43:18;;;;;;;49.83;17.17;;;;;;;7.51;100.00;99909.88;5098417;27;20042;-74
2024/01/05 01:45:44;;;;;;;45.20;16.40;;;;;;;7.37;100.00;99896.69;5098090;27;20028;-74
2024/01/05 01:48:09;;;;;;;46.55;16.60;;;;;;;7.33;100.00;99889.03;5080331;27;20040;-74
2024/01/05 01:50:35;;;;;;;47.25;17.42;;;;;;;7.48;100.00;99886.25;5099190;27;20032;-74
2024/01/05 01:53:00;;;;;;;58.53;18.70;;;;;;;7.58;100.00;99897.09;5083036;28;20037;-74
2024/01/05 01:55:27;;;;;;;55.55;15.68;;;;;;;7.69;100.00;99889.25;5092933;27;20481;-74
2024/01/05 01:57:52;;;;;;;43.92;15.40;;;;;;;7.53;100.00;99877.97;5083963;28;20110;-74
2024/01/05 02:00:19;;;;;;;48.72;15.82;;;;;;;7.55;100.00;99883.16;5086241;27;20037;-74
2024/01/05 02:02:46;;;;;;;51.95;15.88;;;;;;;7.75;100.00;99883.53;5107865;27;20114;-74
2024/01/05 02:05:11;;;;;;;37.95;14.68;;;;;;;7.84;100.00;99878.56;5089501;28;20039;-74
2024/01/05 02:07:37;;;;;;;43.70;14.50;;;;;;;7.76;100.00;99868.47;5107763;27;20043;-74
2024/01/05 02:10:03;;;;;;;40.90;12.82;;;;;;;7.79;100.00;99857.66;5119204;27;20532;-74
2024/01/05 02:12:28;;;;;;;38.80;12.90;;;;;;;7.84;100.00;99866.16;5112220;27;20829;-74
2024/01/05 02:14:54;;;;;;;41.28;12.90;;;;;;;7.87;100.00;99850.00;5107415;27;20044;-74
2024/01/05 02:17:27;;;;;;;44.65;12.00;;;;;;;7.80;100.00;99843.44;5107292;28;20040;-74
2024/01/05 02:19:54;;;;;;;33.33;10.75;;;;;;;7.82;100.00;99836.19;5096668;28;20959;-74
2024/01/05 02:22:21;;;;;;;32.90;10.95;;;;;;;7.91;100.00;99843.53;5106747;28;20485;-74
2024/01/05 02:24:47;;;;;;;33.22;10.73;;;;;;;7.94;100.00;99830.06;5120097;27;20029;-74
2024/01/05 02:27:13;;;;;;;29.17;9.55;;;;;;;8.02;100.00;99832.19;5112679;27;20521;-74
2024/01/05 02:29:38;;;;;;;30.45;9.43;;;;;;;8.03;100.00;99818.81;5111484;27;20036;-74
2024/01/05 02:32:04;;;;;;;29.27;9.20;;;;;;;8.03;100.00;99817.94;5116852;27;20040;-74
2024/01/05 02:34:30;;;;;;;32.45;8.98;;;;;;;8.05;100.00;99813.41;5107903;27;20143;-74
2024/01/05 02:36:55;;;;;;;22.38;7.78;;;;;;;7.93;100.00;99803.59;5118592;27;20036;-74
2024/01/05 02:39:21;;;;;;;20.60;7.07;;;;;;;7.81;100.00;99807.97;5110851;28;20468;-74
2024/01/05 02:41:46;;;;;;;31.83;9.63;;;;;;;7.80;100.00;99800.97;5108192;28;20039;-74
2024/01/05 02:44:12;;;;;;;35.65;9.55;;;;;;;7.71;100.00;99794.47;5099910;28;20028;-74
2024/01/05 02:46:37;;;;;;;27.17;7.85;;;;;;;7.73;100.00;99795.25;5114745;27;20517;-74
2024/01/05 02:49:03;;;;;;;22.88;7.88;;;;;;;7.65;100.00;99786.94;5122069;27;20663;-73
2024/01/05 02:51:29;;;;;;;26.95;7.72;;;;;;;7.73;100.00;99794.34;5108082;28;20131;-74
2024/01/05 02:53:55;;;;;;;29.77;8.27;;;;;;;7.75;100.00;99784.50;5112138;27;20120;-74
2024/01/05 02:56:22;;;;;;;24.80;6.93;;;;;;;7.70;100.00;99792.78;5101229;27;20994;-74
2024/01/05 02:58:48;;;;;;;24.80;8.65;;;;;;;7.71;100.00;99788.31;5115993;27;20034;-73
2024/01/05 03:01:17;;;;;;;25.05;7.28;;;;;;;7.84;100.00;99783.03;5105994;27;20151;-74
2024/01/05 03:03:47;;;;;;;28.23;7.15;;;;;;;7.85;100.00;99787.38;5095594;27;21087;-75
2024/01/05 03:06:16;;;;;;;28.08;7.80;;;;;;;7.89;100.00;99780.91;5108453;27;20044;-74
2024/01/05 03:08:42;;;;;;;24.17;6.55;;;;;;;7.88;100.00;99784.50;5105842;27;20047;-74
2024/01/05 03:11:07;;;;;;;21.75;6.78;;;;;;;7.92;100.00;99780.69;5092508;28;20036;-74
2024/01/05 03:13:33;;;;;;;22.20;6.55;;;;;;;7.88;100.00;99769.44;5111555;27;20059;-73
2024/01/05 03:15:58;;;;;;;31.73;6.97;;;;;;;7.95;100.00;99773.38;5094104;27;20043;-74
2024/01/05 03:18:24;;;;;;;32.60;6.50;;;;;;;7.93;100.00;99769.09;5097774;27;20039;-74
2024/01/05 03:20:49;;;;;;;29.17;6.22;;;;;;;8.04;100.00;99763.91;5103437;27;20067;-74
2024/01/05 03:23:15;;;;;;;27.85;6.78;;;;;;;8.03;100.00;99760.41;5101180;27;20419;-74
2024/01/05 03:25:41;;;;;;;26.48;6.20;;;;;;;8.00;100.00;99757.97;5105105;27;20046;-74
2024/01/05 03:28:07;;;;;;;23.20;6.05;;;;;;;8.02;100.00;99749.88;5109415;27;20042;-74
2024/01/05 03:30:32;;;;;;;24.95;6.07;;;;;;;8.04;100.00;99751.47;5066775;28;20832;-74
2024/01/05 03:32:58;;;;;;;27.73;6.22;;;;;;;7.93;100.00;99745.22;5096344;27;20024;-74
2024/01/05 03:35:23;;;;;;;21.27;6.07;;;;;;;8.10;100.00;99742.22;5097102;27;20055;-74
2024/01/05 03:37:49;;;;;;;25.27;5.70;;;;;;;8.15;100.00;99739.25;5104529;27;20061;-74
2024/01/05 03:40:15;;;;;;;24.83;6.03;;;;;;;8.12;100.00;99732.34;5097141;27;20024;-74
2024/01/05 03:42:43;;;;;;;26.60;6.15;;;;;;;8.13;100.00;99728.72;5102685;27;20036;-74
2024/01/05 03:45:09;;;;;;;26.00;6.72;;;;;;;8.11;100.00;99725.34;5104382;27;20036;-74
2024/01/05 03:47:34;;;;;;;22.67;5.95;;;;;;;7.91;100.00;99726.75;5099900;27;20044;-74
2024/01/05 03:50:00;;;;;;;29.08;6.25;;;;;;;7.91;100.00;99713.47;5083942;27;20047;-74
2024/01/05 03:52:25;;;;;;;25.20;6.85;;;;;;;8.15;100.00;99712.69;5098034;27;20039;-74
2024/01/05 03:54:51;;;;;;;22.15;5.47;;;;;;;8.16;100.00;99707.28;5104605;27;20551;-74
2024/01/05 03:57:16;;;;;;;23.45;5.93;;;;;;;8.09;100.00;99703.38;5106551;27;20040;-74
2024/01/05 03:59:42;;;;;;;26.05;5.40;;;;;;;8.07;100.00;99685.84;5099981;27;20024;-74
2024/01/05 04:02:08;;;;;;;37.60;7.28;;;;;;;7.95;100.00;99693.72;5101970;27;20036;-74
2024/01/05 04:04:34;;;;;;;23.48;6.00;;;;;;;8.00;100.00;99691.59;5093066;27;20036;-74
2024/01/05 04:06:59;;;;;;;31.90;7.28;;;;;;;8.06;100.00;99682.34;5096957;27;20035;-74
2024/01/05 04:09:25;;;;;;;27.70;5.22;;;;;;;8.18;100.00;99680.59;5099692;27;20047;-74
2024/01/05 04:11:51;;;;;;;23.77;6.30;;;;;;;8.28;100.00;99681.63;5098458;27;20031;-74
2024/01/05 04:14:17;;;;;;;21.77;5.30;;;;;;;8.18;100.00;99662.88;5096033;27;20583;-73
2024/01/05 04:16:42;;;;;;;31.52;5.45;;;;;;;8.01;100.00;99661.44;5094028;27;20020;-74
2024/01/05 04:19:09;;;;;;;27.70;5.85;;;;;;;8.12;100.00;99655.34;5098106;27;20043;-74
2024/01/05 04:21:34;;;;;;;22.67;5.13;;;;;;;8.11;100.00;99658.13;5085143;27;20023;-74
2024/01/05 04:24:01;;;;;;;22.02;4.68;;;;;;;7.89;100.00;99649.06;5090552;27;20804;-74
2024/01/05 04:26:27;;;;;;;19.27;5.60;;;;;;;8.21;100.00;99659.16;5101115;27;20036;-74
2024/01/05 04:28:52;;;;;;;25.90;5.80;;;;;;;8.09;100.00;99654.75;5090524;27;20048;-74
2024/01/05 04:31:18;;;;;;;28.42;6.20;;;;;;;8.08;100.00;99658.31;5093432;27;20036;-74
2024/01/05 04:33:43;;;;;;;21.52;5.30;;;;;;;8.08;100.00;99651.22;5069931;27;20036;-74
2024/01/05 04:36:10;;;;;;;26.42;5.75;;;;;;;8.21;100.00;99651.19;5083673;27;20196;-74
2024/01/05 04:38:35;;;;;;;26.55;6.15;;;;;;;8.01;100.00;99649.97;5081238;27;20121;-75
2024/01/05 04:41:02;;;;;;;21.45;5.72;;;;;;;8.12;100.00;99650.03;5099180;27;20121;-74
2024/01/05 04:43:27;;;;;;;23.38;5.25;;;;;;;8.21;100.00;99638.75;5084265;27;20032;-74
2024/01/05 04:45:53;;;;;;;21.95;5.22;;;;;;;8.19;100.00;99638.03;5091833;28;20032;-74
2024/01/05 04:48:18;;;;;;;17.77;5.03;;;;;;;8.19;100.00;99635.38;5095947;27;20040;-74
2024/01/05 04:50:44;;;;;;;16.15;4.72;;;;;;;8.20;100.00;99621.13;5094557;27;20032;-74
2024/01/05 04:53:10;;;;;;;24.98;5.05;;;;;;;8.12;100.00;99631.44;5095887;27;20060;-74
2024/01/05 04:55:35;;;;;;;18.00;4.90;;;;;;;8.17;100.00;99620.50;5101804;27;20040;-74
2024/01/05 04:58:01;;;;;;;18.50;5.53;;;;;;;8.10;100.00;99614.78;5103933;27;20047;-74
2024/01/05 05:00:26;;;;;;;16.38;4.65;;;;;;;8.06;100.00;99608.00;5096231;27;20036;-75
2024/01/05 05:02:52;;;;;;;22.30;4.88;;;;;;;8.07;100.00;99607.03;5096156;27;20028;-74
2024/01/05 05:05:17;;;;;;;19.40;6.25;;;;;;;8.11;100.00;99599.72;5091415;28;20032;-74
2024/01/05 05:07:43;;;;;;;19.13;4.53;;;;;;;8.02;100.00;99598.56;5099338;27;20039;-74
2024/01/05 05:10:09;;;;;;;12.35;4.43;;;;;;;8.04;100.00;99610.78;5095323;27;20069;-74
2024/01/05 05:12:34;;;;;;;13.82;4.60;;;;;;;8.07;100.00;99598.22;5093631;27;20042;-74
2024/01/05 05:15:00;;;;;;;21.05;4.88;;;;;;;8.03;100.00;99601.13;5088432;27;20042;-74
2024/01/05 05:17:26;;;;;;;15.18;4.63;;;;;;;8.00;100.00;99595.19;5096295;27;20141;-74
2024/01/05 05:19:54;;;;;;;20.00;5.40;;;;;;;8.14;100.00;99588.88;5102544;27;20036;-73
2024/01/05 05:22:20;;;;;;;22.65;5.20;;;;;;;7.96;100.00;99596.34;5096469;27;20052;-74
2024/01/05 05:24:46;;;;;;;18.98;4.10;;;;;;;8.11;100.00;99589.94;5091201;28;20039;-74
2024/01/05 05:27:12;;;;;;;20.20;3.80;;;;;;;8.22;100.00;99584.66;5097259;27;20040;-74
2024/01/05 05:29:37;;;;;;;14.80;3.78;;;;;;;8.11;100.00;99566.03;5106088;27;20378;-74
2024/01/05 05:32:03;;;;;;;19.60;3.65;;;;;;;8.16;100.00;99571.84;5092555;27;20047;-74
2024/01/05 05:34:28;;;;;;;12.43;3.67;;;;;;;8.10;100.00;99574.13;5097092;27;20032;-74
2024/01/05 05:36:54;;;;;;;16.75;4.45;;;;;;;8.15;100.00;99574.63;5095586;27;20067;-74
2024/01/05 05:39:20;;;;;;;21.50;5.68;;;;;;;8.12;100.00;99559.75;5103882;27;20044;-74
2024/01/05 05:41:45;;;;;;;13.55;4.78;;;;;;;8.01;100.00;99559.72;5097766;27;20047;-74
2024/01/05 05:44:11;;;;;;;28.42;5.53;;;;;;;8.16;100.00;99555.91;5090655;28;20098;-74
2024/01/05 05:46:36;;;;;;;14.70;3.80;;;;;;;8.04;100.00;99556.84;5071865;27;20054;-74
2024/01/05 05:49:02;;;;;;;15.85;3.20;;;;;;;7.93;100.00;99551.44;5090336;27;20036;-74
2024/01/05 05:51:28;;;;;;;20.08;3.88;;;;;;;7.96;100.00;99551.25;5099940;27;20716;-74
2024/01/05 05:53:54;;;;;;;17.35;3.95;;;;;;;7.85;100.00;99560.00;5096641;27;20036;-74
2024/01/05 05:56:19;;;;;;;14.65;4.05;;;;;;;8.09;100.00;99546.72;5105824;27;20150;-74
2024/01/05 05:58:45;;;;;;;22.05;4.78;;;;;;;7.90;100.00;99541.91;5090457;27;20085;-74
2024/01/05 06:01:12;;;;;;;12.95;3.53;;;;;;;8.11;100.00;99552.75;5095446;27;20036;-74
2024/01/05 06:03:39;;;;;;;12.77;3.70;;;;;;;8.16;100.00;99547.97;5096319;27;20032;-74
2024/01/05 06:06:15;;;;;;;21.42;4.60;;;;;;;8.08;100.00;99547.66;5102762;27;20030;-74
2024/01/05 06:08:41;;;;;;;19.65;3.95;;;;;;;8.18;100.00;99551.38;5100114;27;20109;-74
2024/01/05 06:11:06;;;;;;;15.57;4.03;;;;;;;8.17;100.00;99539.03;5090295;27;20040;-74
2024/01/05 06:13:32;;;;;;;15.50;3.90;;;;;;;8.03;100.00;99540.06;5094876;27;20036;-74
2024/01/05 06:15:57;;;;;;;17.98;3.17;;;;;;;7.92;100.00;99542.66;5089348;27;20224;-74
2024/01/05 06:18:23;;;;;;;16.77;3.30;;;;;;;8.02;100.00;99545.47;5101045;27;20101;-74
2024/01/05 06:20:49;;;;;;;18.92;3.75;;;;;;;8.11;100.00;99543.94;5091432;27;20036;-74
2024/01/05 06:23:14;;;;;;;14.32;3.55;;;;;;;8.15;100.00;99540.97;5076826;27;20035;-74
2024/01/05 06:25:40;;;;;;;17.10;3.47;;;;;;;8.17;100.00;99544.34;5089739;27;20097;-74
2024/01/05 06:28:05;;;;;;;12.95;3.75;;;;;;;8.22;100.00;99536.03;5101713;27;20035;-74
2024/01/05 06:30:31;;;;;;;17.13;4.40;;;;;;;8.13;100.00;99524.28;5102959;27;20040;-74
2024/01/05 06:32:56;;;;;;;11.95;4.18;;;;;;;8.00;100.00;99521.69;5098113;27;20520;-74
2024/01/05 06:35:22;;;;;;;19.70;4.10;;;;;;;8.20;100.00;99522.03;5088573;28;20047;-74
2024/01/05 06:37:47;;;;;;;14.57;2.97;;;;;;;8.32;100.00;99527.25;5088775;27;20146;-74
2024/01/05 06:40:13;;;;;;;17.42;3.78;;;;;;;8.35;100.00;99528.84;5092712;27;20047;-74
2024/01/05 06:42:38;;;;;;;25.40;4.07;;;;;;;8.38;100.00;99525.13;5096883;27;20408;-73
2024/01/05 06:45:05;;;;;;;22.17;5.05;;;;;;;8.33;100.00;99522.78;5097748;27;20036;-74
2024/01/05 06:47:30;;;;;;;10.68;3.63;;;;;;;8.24;100.00;99528.81;5094918;27;20043;-74
2024/01/05 06:49:56;;;;;;;12.35;4.15;;;;;;;8.31;100.00;99530.88;5102353;27;20150;-74
2024/01/05 06:52:22;;;;;;;16.80;3.80;;;;;;;8.30;100.00;99523.88;5096278;27;20149;-74
2024/01/05 06:54:48;;;;;;;10.10;3.25;;;;;;;8.41;100.00;99523.09;5105085;27;20031;-74
2024/01/05 06:57:13;;;;;;;7.35;2.95;;;;;;;8.27;100.00;99517.94;5103482;27;20034;-74
2024/01/05 06:59:39;;;;;;;16.55;3.67;;;;;;;8.29;100.00;99516.88;5077210;27;20051;-73
2024/01/05 07:02:05;;;;;;;14.35;3.95;;;;;;;8.40;100.00;99515.25;5101646;27;20067;-74
2024/01/05 07:04:30;;;;;;;11.75;3.35;;;;;;;8.34;100.00;99523.66;5064123;27;20125;-74
2024/01/05 07:06:56;;;;;;;13.43;3.45;;;;;;;8.37;100.00;99523.44;5098825;27;20116;-73
2024/01/05 07:09:22;;;;;;;14.20;3.72;;;;;;;8.31;100.00;99530.03;5083127;28;20040;-74
2024/01/05 07:11:48;;;;;;;9.32;3.38;;;;;;;8.11;100.00;99526.22;5107677;27;20042;-74
2024/01/05 07:14:13;;;;;;;17.08;3.38;;;;;;;8.17;100.00;99530.22;5097064;28;20063;-74
2024/01/05 07:16:39;;;;;;;13.45;2.67;;;;;;;8.19;100.00;99529.16;5105292;27;20598;-74
2024/01/05 07:19:04;;;;;;;10.25;3.30;;;;;;;8.16;100.00;99529.38;5104393;27;20032;-73
2024/01/05 07:21:30;;;;;;;11.80;3.03;;;;;;;8.17;100.00;99530.22;5111781;27;20032;-74
2024/01/05 07:23:55;;;;;;;9.43;2.65;;;;;;;8.12;100.00;99532.38;5085596;27;20489;-74
2024/01/05 07:26:24;;;;;;;13.57;3.67;;;;;;;8.10;100.00;99539.63;5082784;28;20273;-74
2024/01/05 07:28:49;;;;;;;9.20;2.53;;;;;;;8.12;100.00;99535.88;5113230;27;20108;-74
2024/01/05 07:31:20;;;;;;;12.30;2.85;;;;;;;8.07;100.00;99535.34;5103788;27;20524;-74
2024/01/05 07:33:46;;;;;;;6.90;2.40;;;;;;;8.08;100.00;99523.78;5098836;27;20027;-74
2024/01/05 07:36:11;;;;;;;6.22;2.15;;;;;;;8.10;100.00;99519.22;5103061;27;20622;-74
2024/01/05 07:38:37;;;;;;;13.60;2.72;;;;;;;8.19;100.00;99518.53;5111597;27;20052;-74
2024/01/05 07:41:04;;;;;;;10.57;2.38;;;;;;;8.03;100.00;99525.91;5101036;27;20052;-74
2024/01/05 07:43:30;;;;;;;9.50;2.55;;;;;;;8.01;100.00;99522.53;5084447;28;20040;-74
2024/01/05 07:45:55;;;;;;;10.40;2.40;;;;;;;7.89;100.00;99531.44;5092293;27;20032;-74
2024/01/05 07:48:24;;;;;;;8.20;2.38;;;;;;;7.87;100.00;99538.63;5102761;27;20291;-74
2024/01/05 07:50:49;;;;;;;6.30;2.10;;;;;;;7.88;100.00;99532.38;5091290;27;20071;-74
2024/01/05 07:53:15;;;;;;;4.30;1.50;;;;;;;7.85;100.00;99537.91;5069166;27;20704;-74
2024/01/05 07:55:42;;;;;;;6.30;1.80;;;;;;;7.82;100.00;99528.34;5100699;27;20036;-75
2024/01/05 07:58:07;;;;;;;5.82;1.83;;;;;;;7.91;100.00;99526.84;5101025;27;20040;-74
2024/01/05 08:00:35;;;;;;;7.47;1.80;;;;;;;7.91;100.00;99514.41;5096708;27;20078;-74
2024/01/05 08:03:03;;;;;;;5.28;1.83;;;;;;;7.92;100.00;99526.72;5099235;27;20032;-74
2024/01/05 08:05:28;;;;;;;6.13;1.73;;;;;;;7.94;100.00;99524.81;5089405;27;20036;-74
2024/01/05 08:08:00;;;;;;;5.47;1.90;;;;;;;7.95;100.00;99526.50;5075163;27;20060;-74
2024/01/05 08:10:25;;;;;;;10.82;2.42;;;;;;;8.01;100.00;99528.69;5089675;27;20055;-74
2024/01/05 08:12:51;;;;;;;6.75;2.40;;;;;;;8.07;100.00;99531.84;5088188;27;20032;-74
2024/01/05 08:15:16;;;;;;;4.28;2.22;;;;;;;7.97;100.00;99523.72;5094396;27;20028;-74
2024/01/05 08:17:42;;;;;;;4.80;1.58;;;;;;;7.92;100.00;99508.13;5092646;27;20706;-74
2024/01/05 08:20:08;;;;;;;6.38;1.90;;;;;;;7.94;100.00;99505.41;5088001;28;20801;-73
2024/01/05 08:22:33;;;;;;;4.55;1.58;;;;;;;7.99;100.00;99495.28;5096034;27;20028;-73
2024/01/05 08:24:59;;;;;;;4.13;1.52;;;;;;;7.83;100.00;99497.34;5083836;27;20044;-75
2024/01/05 08:27:25;;;;;;;2.75;1.35;;;;;;;7.86;100.00;99497.97;5087872;27;20039;-74
2024/01/05 08:29:50;;;;;;;1.42;0.90;;;;;;;7.86;100.00;99500.63;5086850;27;20769;-74
2024/01/05 08:32:16;;;;;;;3.05;0.80;;;;;;;8.00;100.00;99492.50;5089553;27;20035;-74
2024/01/05 08:34:41;;;;;;;3.17;1.33;;;;;;;7.98;100.00;99499.75;5092562;27;20036;-74
2024/01/05 08:37:07;;;;;;;7.18;1.45;;;;;;;7.95;100.00;99502.63;5094925;27;20036;-74
2024/01/05 08:39:39;;;;;;;7.82;2.15;;;;;;;8.03;100.00;99504.69;5092832;27;20143;-74
2024/01/05 08:42:05;;;;;;;13.73;3.67;;;;;;;8.03;100.00;99504.69;5099681;27;20036;-74
2024/01/05 08:44:32;;;;;;;4.25;1.52;;;;;;;7.97;100.00;99506.00;5075042;28;20034;-74
2024/01/05 08:46:58;;;;;;;12.45;2.28;;;;;;;7.94;100.00;99508.03;5049047;28;20043;-74
2024/01/05 08:49:23;;;;;;;26.75;6.00;;;;;;;8.01;100.00;99488.88;5070613;28;20044;-74
2024/01/05 08:51:49;;;;;;;12.15;3.22;;;;;;;8.02;100.00;99495.03;5058474;27;20358;-74
2024/01/05 08:54:14;;;;;;;11.32;3.28;;;;;;;8.08;100.00;99493.72;5094644;27;20028;-74
2024/01/05 08:56:40;;;;;;;11.48;3.40;;;;;;;7.99;100.00;99495.28;5088339;27;20468;-74
2024/01/05 08:59:05;;;;;;;10.75;2.22;;;;;;;7.97;100.00;99491.88;5094062;27;20308;-74
2024/01/05 09:01:34;;;;;;;9.48;2.42;;;;;;;8.08;100.00;99501.69;5080008;27;20028;-75
2024/01/05 09:04:00;;;;;;;11.45;4.15;;;;;;;8.00;100.00;99503.13;5091416;27;20497;-74
2024/01/05 09:06:27;;;;;;;4.30;1.88;;;;;;;7.68;100.00;99504.63;5071458;27;20169;-74
2024/01/05 09:08:55;;;;;;;6.95;2.05;;;;;;;7.84;100.00;99510.53;5084657;27;20076;-74
2024/01/05 09:11:20;;;;;;;6.68;1.98;;;;;;;7.89;100.00;99504.88;5057246;28;20144;-74
2024/01/05 09:13:46;;;;;;;11.68;2.65;;;;;;;7.92;100.00;99508.13;5079363;27;20032;-74
2024/01/05 09:16:12;;;;;;;7.43;2.38;;;;;;;7.60;100.00;99501.72;5078074;27;20032;-74
2024/01/05 09:18:38;;;;;;;2.33;1.35;;;;;;;7.61;100.00;99506.88;5070443;27;20036;-74
2024/01/05 09:21:06;;;;;;;4.10;1.25;;;;;;;7.62;100.00;99515.69;5080733;27;20059;-74
2024/01/05 09:23:32;;;;;;;3.55;1.73;;;;;;;7.79;100.00;99518.81;5070530;27;20032;-74
2024/01/05 09:25:58;;;;;;;5.55;1.77;;;;;;;7.64;100.00;99516.44;5079374;27;20036;-74
2024/01/05 09:28:24;;;;;;;4.97;2.03;;;;;;;7.50;100.00;99505.03;5090749;27;20040;-74
2024/01/05 09:30:49;;;;;;;3.53;1.85;;;;;;;7.65;100.00;99504.88;5091851;27;20490;-74
2024/01/05 09:33:19;;;;;;;2.08;1.25;;;;;;;7.69;100.00;99498.38;5070360;27;20028;-74
2024/01/05 09:35:45;;;;;;;3.83;1.25;;;;;;;7.77;100.00;99507.47;5090276;27;20086;-74
2024/01/05 09:38:10;;;;;;;6.78;1.75;;;;;;;7.57;100.00;99508.06;5088381;27;20094;-74
2024/01/05 09:40:37;;;;;;;4.30;1.88;;;;;;;7.68;100.00;99507.28;5088156;27;20197;-74
2024/01/05 09:43:04;;;;;;;4.65;1.25;;;;;;;7.85;100.00;99508.72;5087296;27;20086;-74
2024/01/05 09:45:30;;;;;;;3.88;1.77;;;;;;;7.72;100.00;99514.06;5051926;27;20117;-74
2024/01/05 09:48:00;;;;;;;3.40;1.20;;;;;;;7.83;100.00;99515.94;5081158;27;20036;-74
2024/01/05 09:50:27;;;;;;;5.15;1.50;;;;;;;7.81;100.00;99513.41;5080873;27;20087;-73
2024/01/05 09:52:52;;;;;;;2.55;1.02;;;;;;;7.79;100.00;99531.25;5084196;27;20040;-74
2024/01/05 09:55:18;;;;;;;5.47;1.10;;;;;;;7.67;100.00;99529.47;5099191;27;20040;-74
2024/01/05 09:57:45;;;;;;;2.28;0.82;;;;;;;7.42;100.00;99530.38;5094001;27;20028;-74
2024/01/05 10:00:14;;;;;;;3.42;0.77;;;;;;;7.31;100.00;99540.91;5072525;27;20035;-75
2024/01/05 10:02:44;;;;;;;2.47;1.10;;;;;;;7.29;100.00;99538.38;5088644;27;20857;-74
2024/01/05 10:05:11;;;;;;;2.30;0.90;;;;;;;7.17;100.00;99544.53;5086710;27;20934;-74
2024/01/05 10:07:43;;;;;;;2.50;0.80;;;;;;;7.22;100.00;99553.84;5084433;27;20123;-74
2024/01/05 10:10:11;;;;;;;;;;;;;;;7.31;100.00;99552.38;5081128;27;20072;-74
2024/01/05 10:12:37;;;;;;;1.75;1.08;;;;;;;7.33;100.00;99554.91;5084407;27;19916;-74
2024/01/05 10:15:06;;;;;;;1.42;0.82;;;;;;;7.24;100.00;99559.06;5096970;27;20548;-73
2024/01/05 10:17:35;;;;;;;5.53;1.00;;;;;;;7.49;100.00;99552.88;5084641;27;20102;-74
2024/01/05 10:20:17;;;;;;;2.40;0.88;;;;;;;7.64;100.00;99551.78;5089551;27;20035;-74
2024/01/05 10:22:46;;;;;;;1.00;0.80;;;;;;;7.55;100.00;99533.88;5085636;27;20106;-74
2024/01/05 10:25:21;;;;;;;1.67;0.80;;;;;;;7.34;100.00;99546.84;5066020;28;20040;-74
2024/01/05 10:27:49;;;;;;;3.75;0.80;;;;;;;7.50;100.00;99538.66;5049335;28;20029;-73
2024/01/05 10:30:28;;;;;;;1.75;1.08;;;;;;;7.20;100.00;99550.47;5094830;27;20047;-74
2024/01/05 10:33:07;;;;;;;2.25;1.15;;;;;;;7.21;100.00;99535.41;5071536;28;20330;-73
2024/01/05 10:35:35;;;;;;;1.73;1.10;;;;;;;7.36;100.00;99542.28;5068716;28;20097;-74
2024/01/05 10:38:11;;;;;;;1.92;1.17;;;;;;;7.24;100.00;99537.88;5084288;27;20048;-74
2024/01/05 10:40:38;;;;;;;3.35;1.67;;;;;;;7.43;100.00;99540.03;5078685;28;20548;-74
2024/01/05 10:43:14;;;;;;;3.10;1.75;;;;;;;7.55;100.00;99543.63;5072149;27;20131;-74
2024/01/05 10:45:41;;;;;;;1.67;1.48;;;;;;;7.43;100.00;99534.72;5090462;27;20106;-74
2024/01/05 10:48:09;;;;;;;3.53;1.35;;;;;;;7.60;100.00;99533.53;5096573;27;20032;-74
2024/01/05 10:50:41;;;;;;;1.85;1.25;;;;;;;7.59;100.00;99531.84;5098359;27;20080;-74
2024/01/05 10:53:10;;;;;;;1.40;0.90;;;;;;;7.54;100.00;99534.81;5086057;27;20666;-74
2024/01/05 10:55:37;;;;;;;3.78;1.65;;;;;;;7.57;100.00;99528.44;5092781;27;20031;-74
2024/01/05 10:58:06;;;;;;;2.78;1.10;;;;;;;7.56;100.00;99534.72;5096434;27;20066;-74
2024/01/05 11:00:32;;;;;;;1.48;1.20;;;;;;;7.72;100.00;99532.63;5051062;28;20032;-74
2024/01/05 11:03:09;;;;;;;4.85;1.58;;;;;;;7.75;100.00;99529.78;5100201;27;20034;-74
2024/01/05 11:05:36;;;;;;;3.15;1.60;;;;;;;7.49;100.00;99527.19;5078067;28;20552;-73
2024/01/05 11:08:02;;;;;;;3.85;2.53;;;;;;;7.70;100.00;99530.09;5100745;27;20591;-73
2024/01/05 11:10:31;;;;;;;5.85;1.70;;;;;;;7.53;100.00;99523.38;5079915;27;20035;-75
2024/01/05 11:13:03;;;;;;;5.20;1.77;;;;;;;7.56;100.00;99527.59;5095069;27;20032;-73
2024/01/05 11:15:59;;;;;;;2.50;1.80;;;;;;;7.58;100.00;99530.13;5095806;27;20040;-74
2024/01/05 11:19:02;;;;;;;4.55;2.65;;;;;;;7.68;100.00;99531.16;5086507;27;20029;-74
2024/01/05 11:21:57;;;;;;;3.80;2.65;;;;;;;7.70;100.00;99531.91;5081289;28;20070;-74
2024/01/05 11:24:26;;;;;;;8.45;3.33;;;;;;;7.64;100.00;99522.59;5096392;27;20046;-74